Time;durP1;ratioP1;P1;durP2;ratioP2;P2;SDS_P1;SDS_P2;PMS_P1;PMS_P2;Temp;Humidity;BMP_temperature;BMP_pressure;BME280_temperature;BME280_humidity;BME280_pressure;Samples;Min_cycle;Max_cycle;Signal;HPM_P1;HPM_P2
2022/12/08 00:01:43;;;;;;;4.77;3.97;;;2.00;99.90;;;;;;4942461;28;20217;-81
2022/12/08 00:04:09;;;;;;;8.93;5.53;;;1.30;99.90;;;;;;4975774;28;20183;-81
2022/12/08 00:09:21;;;;;;;9.63;5.43;;;0.50;99.90;;;;;;4974677;28;20221;-81
2022/12/08 00:12:00;;;;;;;12.47;5.00;;;1.90;99.90;;;;;;4975564;28;20218;-81
2022/12/08 00:14:30;;;;;;;8.63;4.93;;;1.30;99.90;;;;;;4975383;28;20184;-81
2022/12/08 00:16:56;;;;;;;3.50;3.20;;;0.70;99.90;;;;;;4975193;28;20179;-81
2022/12/08 00:19:23;;;;;;;5.50;4.00;;;0.40;99.90;;;;;;4975380;28;20267;-81
2022/12/08 00:21:49;;;;;;;5.10;4.33;;;0.40;99.90;;;;;;4974931;28;20248;-81
2022/12/08 00:24:15;;;;;;;3.57;3.27;;;;;;;;;;4974744;28;20214;-81
2022/12/08 00:26:41;;;;;;;2.87;2.67;;;0.40;99.90;;;;;;4974937;28;20241;-81
2022/12/08 00:29:07;;;;;;;5.53;3.97;;;0.40;99.90;;;;;;4974608;28;20556;-81
2022/12/08 00:31:33;;;;;;;4.93;3.30;;;0.50;99.90;;;;;;4975276;28;20631;-81
2022/12/08 00:33:59;;;;;;;7.40;5.00;;;0.40;99.90;;;;;;4974657;28;20194;-81
2022/12/08 00:36:25;;;;;;;3.23;2.90;;;2.00;99.90;;;;;;4974859;28;20192;-81
2022/12/08 00:38:51;;;;;;;6.03;4.47;;;1.60;99.90;;;;;;4957568;28;20553;-81
2022/12/08 00:42:10;;;;;;;10.70;3.40;;;0.10;99.90;;;;;;4957390;28;20214;-81
2022/12/08 00:44:06;;;;;;;4.47;2.23;;;0.50;99.90;;;;;;4974303;28;20619;-82
2022/12/08 00:46:32;;;;;;;5.70;4.90;;;2.30;99.90;;;;;;4957678;28;20186;-81
2022/12/08 00:48:58;;;;;;;8.47;4.17;;;0.40;99.90;;;;;;4974859;28;20682;-81
2022/12/08 00:51:23;;;;;;;3.23;3.03;;;0.40;99.90;;;;;;4957504;28;20194;-81
2022/12/08 00:53:49;;;;;;;5.83;3.97;;;0.50;99.90;;;;;;4975044;28;20183;-81
2022/12/08 00:56:15;;;;;;;5.63;5.03;;;0.30;99.90;;;;;;4973521;28;20687;-82
2022/12/08 00:58:40;;;;;;;6.87;3.33;;;2.10;99.90;;;;;;4974753;28;20183;-81
2022/12/08 01:01:13;;;;;;;10.80;4.57;;;0.20;99.90;;;;;;4974187;28;20190;-81
2022/12/08 01:03:39;;;;;;;7.10;4.00;;;2.90;99.90;;;;;;4957793;28;20216;-81
2022/12/08 01:06:06;;;;;;;4.43;4.00;;;0.70;99.90;;;;;;4974691;28;20181;-81
2022/12/08 01:08:32;;;;;;;6.37;5.33;;;0.30;99.90;;;;;;4974591;28;20274;-81
2022/12/08 01:11:17;;;;;;;3.43;2.87;;;1.20;99.90;;;;;;4974573;28;20188;-81
2022/12/08 01:13:44;;;;;;;7.17;5.07;;;1.00;99.90;;;;;;4957289;28;20270;-81
2022/12/08 01:16:17;;;;;;;6.00;2.80;;;1.80;99.90;;;;;;4974382;28;20257;-82
2022/12/08 01:18:42;;;;;;;8.70;2.97;;;1.90;99.90;;;;;;4942485;28;20204;-81
2022/12/08 01:21:08;;;;;;;2.77;2.53;;;0.90;99.90;;;;;;4973985;28;20261;-82
2022/12/08 01:23:34;;;;;;;5.97;3.80;;;0.30;99.90;;;;;;4957252;28;20650;-81
2022/12/08 01:26:04;;;;;;;2.07;1.90;;;1.60;99.90;;;;;;4974557;28;20226;-81
2022/12/08 01:28:31;;;;;;;4.43;3.67;;;0.30;99.90;;;;;;4974246;28;20185;-81
2022/12/08 01:30:58;;;;;;;7.83;3.43;;;0.20;99.90;;;;;;4974367;28;20265;-81
2022/12/08 01:33:25;;;;;;;5.37;3.97;;;0.20;99.90;;;;;;4974165;28;20185;-81
2022/12/08 01:35:51;;;;;;;5.80;3.57;;;0.30;99.90;;;;;;4974192;28;20698;-81
2022/12/08 01:38:17;;;;;;;6.77;3.57;;;0.30;99.90;;;;;;4957076;28;20178;-81
2022/12/08 01:40:43;;;;;;;4.10;3.33;;;1.00;99.90;;;;;;4940975;28;20217;-81
2022/12/08 01:43:17;;;;;;;5.03;2.87;;;0.60;99.90;;;;;;4973987;28;20212;-81
2022/12/08 01:45:43;;;;;;;5.17;4.77;;;2.10;99.90;;;;;;4957183;28;20193;-81
2022/12/08 01:48:21;;;;;;;10.53;5.40;;;0.30;99.90;;;;;;4974283;28;20190;-81
2022/12/08 01:50:48;;;;;;;4.20;2.97;;;0.40;99.90;;;;;;4974272;28;20167;-81
2022/12/08 01:53:18;;;;;;;5.23;3.57;;;0.90;99.90;;;;;;4974042;28;20270;-82
2022/12/08 01:55:51;;;;;;;6.60;4.27;;;0.30;99.90;;;;;;4974394;28;20181;-81
2022/12/08 01:58:33;;;;;;;7.93;4.13;;;0.40;99.90;;;;;;4973807;28;20171;-81
2022/12/08 02:00:59;;;;;;;3.30;3.00;;;1.80;99.90;;;;;;4974203;28;20174;-81
2022/12/08 02:03:41;;;;;;;3.97;3.27;;;0.30;99.90;;;;;;4973933;28;20186;-81
2022/12/08 02:06:07;;;;;;;4.23;3.67;;;0.30;99.90;;;;;;4974273;28;20639;-81
2022/12/08 02:08:34;;;;;;;6.33;3.97;;;2.20;99.90;;;;;;4976108;28;20191;-81
2022/12/08 02:11:00;;;;;;;8.17;3.87;;;1.80;99.90;;;;;;4977452;28;20179;-81
2022/12/08 02:13:26;;;;;;;8.17;2.63;;;0.20;99.90;;;;;;4977678;28;20657;-81
2022/12/08 02:16:29;;;;;;;3.50;2.40;;;2.10;99.90;;;;;;4977516;28;20198;-81
2022/12/08 02:19:10;;;;;;;4.40;3.30;;;0.10;99.90;;;;;;4977518;28;20658;-81
2022/12/08 02:21:48;;;;;;;3.30;2.87;;;0.10;99.90;;;;;;4976972;28;20199;-81
2022/12/08 02:24:39;;;;;;;5.50;3.33;;;0.10;99.90;;;;;;4977250;28;20165;-81
2022/12/08 02:27:19;;;;;;;3.60;3.40;;;0.10;99.90;;;;;;4977109;28;20201;-81
2022/12/08 02:30:08;;;;;;;3.43;2.80;;;0.10;99.90;;;;;;4977576;28;20235;-81
2022/12/08 02:32:56;;;;;;;5.37;3.63;;;0.10;99.90;;;;;;4959742;28;20194;-81
2022/12/08 02:35:40;;;;;;;5.23;4.03;;;0.10;99.90;;;;;;4959737;28;20609;-82
2022/12/08 02:38:30;;;;;;;2.73;2.30;;;0.70;99.90;;;;;;4976926;28;20537;-81
2022/12/08 02:41:16;;;;;;;4.20;2.60;;;0.20;99.90;;;;;;4977175;28;20170;-81
2022/12/08 02:43:47;;;;;;;8.10;4.13;;;0.20;99.90;;;;;;4976930;28;20644;-81
2022/12/08 02:46:23;;;;;;;3.67;2.90;;;0.20;99.90;;;;;;4959714;28;20174;-81
2022/12/08 02:48:50;;;;;;;3.03;2.67;;;1.80;99.90;;;;;;4977278;28;20163;-81
2022/12/08 02:51:16;;;;;;;2.80;2.60;;;0.30;99.90;;;;;;4976859;28;20182;-81
2022/12/08 02:53:43;;;;;;;4.23;3.77;;;0.40;99.90;;;;;;4976759;28;20693;-81
2022/12/08 02:56:08;;;;;;;6.20;3.07;;;0.60;99.90;;;;;;4976699;28;20308;-81
2022/12/08 02:58:51;;;;;;;2.67;2.43;;;1.30;99.90;;;;;;4965973;28;20629;-81
2022/12/08 03:01:17;;;;;;;4.60;3.97;;;0.30;99.90;;;;;;4940227;29;20183;-81
2022/12/08 03:03:58;;;;;;;4.93;3.27;;;0.40;99.90;;;;;;4939918;29;20198;-81
2022/12/08 03:07:02;;;;;;;3.00;2.80;;;0.40;99.90;;;;;;4957111;29;20231;-82
2022/12/08 03:09:37;;;;;;;3.90;3.50;;;0.50;99.90;;;;;;4956930;29;20155;-82
2022/12/08 03:12:11;;;;;;;6.43;3.33;;;0.50;99.90;;;;;;4956985;29;20214;-81
2022/12/08 03:14:40;;;;;;;10.33;3.13;;;1.00;99.90;;;;;;4956972;29;20178;-81
2022/12/08 03:17:06;;;;;;;3.80;3.30;;;1.70;99.90;;;;;;4940387;29;20637;-81
2022/12/08 03:19:36;;;;;;;4.67;4.23;;;0.60;99.90;;;;;;4956324;28;20183;-81
2022/12/08 03:22:04;;;;;;;7.80;4.60;;;1.00;99.90;;;;;;4956844;29;20203;-81
2022/12/08 03:24:42;;;;;;;3.20;2.97;;;0.70;99.90;;;;;;4939514;29;20188;-81
2022/12/08 03:27:13;;;;;;;5.93;3.70;;;0.80;99.90;;;;;;4956890;29;20170;-81
2022/12/08 03:29:39;;;;;;;5.10;2.67;;;2.50;99.90;;;;;;4956657;29;20199;-81
2022/12/08 03:32:46;;;;;;;2.63;2.43;;;0.80;99.90;;;;;;4939665;29;20210;-81
2022/12/08 03:35:15;;;;;;;5.83;3.63;;;0.80;99.90;;;;;;4957058;29;20171;-81
2022/12/08 03:37:42;;;;;;;2.57;1.80;;;0.80;99.90;;;;;;4939390;29;20195;-81
2022/12/08 03:40:11;;;;;;;2.90;2.40;;;0.80;99.90;;;;;;4956813;29;20186;-81
2022/12/08 03:42:36;;;;;;;7.73;4.53;;;0.90;99.90;;;;;;4939139;29;20219;-81
2022/12/08 03:45:03;;;;;;;2.20;2.10;;;2.10;99.90;;;;;;4939606;29;20640;-81
2022/12/08 03:47:29;;;;;;;4.47;3.90;;;0.90;99.90;;;;;;4939626;29;20588;-81
2022/12/08 03:49:54;;;;;;;2.63;2.43;;;3.30;99.90;;;;;;4939572;29;20211;-81
2022/12/08 03:52:20;;;;;;;6.03;4.47;;;2.90;99.90;;;;;;4939229;29;20550;-81
2022/12/08 03:54:45;;;;;;;12.50;3.63;;;2.30;99.90;;;;;;4955957;29;20187;-81
2022/12/08 03:57:11;;;;;;;4.60;4.10;;;1.10;99.90;;;;;;4956518;28;20239;-81
2022/12/08 03:59:37;;;;;;;3.63;2.77;;;0.90;99.90;;;;;;4956225;29;20662;-81
2022/12/08 04:02:03;;;;;;;6.73;3.73;;;1.60;99.90;;;;;;4956409;29;20285;-81
2022/12/08 04:04:28;;;;;;;3.23;2.93;;;1.50;99.90;;;;;;4956247;29;20191;-81
2022/12/08 04:06:54;;;;;;;3.20;2.93;;;0.90;99.90;;;;;;4939007;29;20215;-81
2022/12/08 04:09:19;;;;;;;11.17;4.17;;;0.90;99.90;;;;;;4923229;29;20193;-81
2022/12/08 04:11:45;;;;;;;6.70;3.70;;;1.00;99.90;;;;;;4955647;29;20191;-81
2022/12/08 04:14:10;;;;;;;3.47;3.27;;;2.40;99.90;;;;;;4955878;29;20194;-81
2022/12/08 04:16:36;;;;;;;4.77;3.30;;;2.70;99.90;;;;;;4938607;29;20214;-82
2022/12/08 04:19:02;;;;;;;6.23;4.30;;;0.90;99.90;;;;;;4938959;29;20180;-81
2022/12/08 04:21:28;;;;;;;7.83;4.50;;;1.90;99.90;;;;;;4938709;29;20222;-81
2022/12/08 04:23:54;;;;;;;2.87;2.60;;;1.90;99.90;;;;;;4955732;29;20179;-81
2022/12/08 04:26:19;;;;;;;4.40;3.33;;;0.90;99.90;;;;;;4955553;29;20186;-81
2022/12/08 04:28:45;;;;;;;2.70;2.47;;;0.90;99.90;;;;;;4955541;29;20231;-81
2022/12/08 04:31:11;;;;;;;2.37;2.17;;;2.60;99.90;;;;;;4921982;29;20187;-81
2022/12/08 04:33:36;;;;;;;2.83;2.60;;;2.30;99.90;;;;;;4955260;29;20704;-81
2022/12/08 04:36:04;;;;;;;2.30;2.20;;;0.80;99.90;;;;;;4938658;29;20274;-81
2022/12/08 04:38:30;;;;;;;4.23;3.53;;;0.80;99.90;;;;;;4938316;29;20188;-81
2022/12/08 04:40:56;;;;;;;2.67;2.47;;;1.00;99.90;;;;;;4955461;29;20685;-81
2022/12/08 04:43:21;;;;;;;4.40;3.93;;;0.70;99.90;;;;;;4955245;29;20219;-81
2022/12/08 04:45:47;;;;;;;5.03;3.87;;;0.70;99.90;;;;;;4956512;29;20254;-81
2022/12/08 04:48:13;;;;;;;4.47;3.43;;;0.70;99.90;;;;;;4961654;29;20191;-81
2022/12/08 04:50:40;;;;;;;9.10;4.63;;;1.30;99.90;;;;;;4962311;29;20184;-82
2022/12/08 04:53:07;;;;;;;5.50;3.23;;;0.70;99.90;;;;;;4977857;28;20210;-81
2022/12/08 04:55:32;;;;;;;4.50;3.47;;;2.60;99.90;;;;;;4979565;29;20183;-82
2022/12/08 04:57:58;;;;;;;3.10;2.80;;;0.70;99.90;;;;;;4961691;29;20227;-82
2022/12/08 05:00:24;;;;;;;12.27;4.13;;;1.20;99.90;;;;;;4940565;29;20191;-80
2022/12/08 05:02:49;;;;;;;2.33;2.13;;;1.40;99.90;;;;;;4953905;29;20215;-81
2022/12/08 05:05:15;;;;;;;5.63;3.47;;;1.80;99.90;;;;;;4946040;29;20194;-81
2022/12/08 05:07:40;;;;;;;3.47;2.27;;;0.60;99.90;;;;;;4976493;28;20196;-81
2022/12/08 05:10:07;;;;;;;5.23;4.50;;;0.60;99.90;;;;;;4975839;28;20171;-80
2022/12/08 05:12:33;;;;;;;11.07;3.60;;;0.60;99.90;;;;;;4996840;28;20241;-80
2022/12/08 05:14:59;;;;;;;3.77;3.33;;;1.70;99.90;;;;;;4987197;28;20213;-80
2022/12/08 05:17:25;;;;;;;5.00;4.50;;;0.60;99.90;;;;;;4974459;28;20636;-81
2022/12/08 05:19:51;;;;;;;12.07;5.43;;;1.20;99.90;;;;;;4974116;28;20197;-81
2022/12/08 05:22:16;;;;;;;7.67;4.77;;;0.60;99.90;;;;;;4957167;28;20218;-81
2022/12/08 05:24:42;;;;;;;6.00;2.83;;;0.80;99.90;;;;;;4974110;28;20197;-81
2022/12/08 05:27:08;;;;;;;9.13;4.03;;;1.70;99.90;;;;;;4974223;28;20185;-82
2022/12/08 05:29:34;;;;;;;6.43;4.00;;;0.50;99.90;;;;;;4957442;28;20179;-82
2022/12/08 05:32:00;;;;;;;5.43;4.10;;;1.60;99.90;;;;;;4974286;28;20609;-81
2022/12/08 05:34:26;;;;;;;10.70;5.83;;;0.50;99.90;;;;;;4974132;28;20178;-81
2022/12/08 05:36:51;;;;;;;4.70;2.37;;;0.50;99.90;;;;;;4956741;28;20188;-81
2022/12/08 05:39:17;;;;;;;6.73;3.83;;;0.40;99.90;;;;;;4957239;28;20282;-79
2022/12/08 05:41:43;;;;;;;9.73;3.73;;;2.10;99.90;;;;;;4956863;28;20620;-80
2022/12/08 05:44:09;;;;;;;5.37;2.53;;;0.60;99.90;;;;;;4977886;28;20198;-80
2022/12/08 05:46:35;;;;;;;5.77;3.47;;;0.50;99.90;;;;;;4977876;28;20187;-80
2022/12/08 05:49:02;;;;;;;6.80;3.30;;;1.50;99.90;;;;;;4977249;28;20178;-80
2022/12/08 05:51:28;;;;;;;3.30;2.80;;;1.40;99.90;;;;;;4959961;28;20705;-80
2022/12/08 05:53:55;;;;;;;3.13;2.90;;;0.50;99.90;;;;;;4977456;28;20191;-80
2022/12/08 05:56:22;;;;;;;3.73;3.03;;;0.50;99.90;;;;;;4977343;28;20230;-80
2022/12/08 05:58:48;;;;;;;4.00;3.30;;;0.50;99.90;;;;;;4977115;28;20190;-81
2022/12/08 06:01:18;;;;;;;3.30;2.70;;;0.50;99.90;;;;;;4976834;28;20178;-81
2022/12/08 06:03:43;;;;;;;2.87;2.70;;;0.70;99.90;;;;;;4976913;28;20189;-81
2022/12/08 06:06:09;;;;;;;3.50;3.30;;;2.00;99.90;;;;;;4959603;28;20517;-81
2022/12/08 06:08:34;;;;;;;3.70;3.40;;;1.60;99.90;;;;;;4943735;28;20189;-80
2022/12/08 06:11:00;;;;;;;5.40;4.90;;;0.50;99.90;;;;;;4976743;28;20186;-81
2022/12/08 06:13:26;;;;;;;6.40;3.90;;;0.50;99.90;;;;;;4959370;28;20217;-81
2022/12/08 06:15:51;;;;;;;5.57;4.33;;;1.60;99.90;;;;;;4959677;28;20193;-81
2022/12/08 06:18:17;;;;;;;13.07;10.77;;;1.80;99.90;;;;;;4967755;28;20521;-81
2022/12/08 06:20:42;;;;;;;32.47;10.23;;;0.50;99.90;;;;;;4960638;28;20733;-81
2022/12/08 06:23:08;;;;;;;7.93;5.43;;;0.50;99.90;;;;;;4957567;28;20221;-81
2022/12/08 06:25:34;;;;;;;12.80;4.97;;;0.40;99.90;;;;;;4957908;28;20249;-83
2022/12/08 06:27:59;;;;;;;5.17;4.67;;;0.60;99.90;;;;;;4974570;28;20546;-82
2022/12/08 06:30:27;;;;;;;8.33;4.13;;;0.90;99.90;;;;;;4942382;28;20594;-81
2022/12/08 06:32:52;;;;;;;8.17;4.87;;;1.30;99.90;;;;;;4958191;28;20190;-82
2022/12/08 06:35:18;;;;;;;6.17;4.23;;;1.00;99.90;;;;;;4958126;28;20209;-82
2022/12/08 06:37:44;;;;;;;11.57;5.10;;;2.40;99.90;;;;;;4974989;28;20562;-81
2022/12/08 06:40:10;;;;;;;5.00;4.37;;;0.50;99.90;;;;;;4974892;28;20206;-81
2022/12/08 06:42:45;;;;;;;2.63;2.43;;;0.50;99.90;;;;;;4957623;28;20253;-81
2022/12/08 06:45:13;;;;;;;4.97;3.87;;;3.00;99.90;;;;;;4962477;28;20190;-81
2022/12/08 06:47:39;;;;;;;7.10;2.83;;;0.90;99.90;;;;;;4971207;28;20589;-81
2022/12/08 06:50:06;;;;;;;4.80;2.70;;;0.70;99.90;;;;;;4969616;28;20175;-82
2022/12/08 06:52:32;;;;;;;5.10;3.07;;;0.80;99.90;;;;;;4973886;28;20186;-82
2022/12/08 06:54:58;;;;;;;3.83;2.57;;;;;;;;;;4954667;28;20590;-82
2022/12/08 06:57:24;;;;;;;3.97;3.03;;;0.80;99.90;;;;;;4973269;28;20230;-82
2022/12/08 06:59:50;;;;;;;4.37;2.70;;;1.60;99.90;;;;;;4973199;28;20231;-82
2022/12/08 07:02:16;;;;;;;4.53;3.57;;;0.90;99.90;;;;;;4955078;28;20238;-83
2022/12/08 07:04:42;;;;;;;2.47;2.07;;;1.10;99.90;;;;;;4940807;28;20521;-82
2022/12/08 07:07:08;;;;;;;3.43;2.97;;;1.00;99.90;;;;;;4973261;28;20198;-82
2022/12/08 07:09:33;;;;;;;4.17;3.30;;;1.00;99.90;;;;;;4956877;28;20191;-82
2022/12/08 07:11:59;;;;;;;2.53;2.33;;;2.70;99.90;;;;;;4965271;28;20206;-82
2022/12/08 07:14:25;;;;;;;7.57;4.20;;;1.00;99.90;;;;;;4928076;28;20192;-82
2022/12/08 07:16:51;;;;;;;3.83;2.33;;;1.00;99.90;;;;;;4955174;28;20640;-82
2022/12/08 07:19:17;;;;;;;13.87;5.23;;;2.00;99.90;;;;;;4964772;28;20206;-81
2022/12/08 07:21:43;;;;;;;16.73;2.60;;;1.10;99.90;;;;;;4955818;28;20905;-82
2022/12/08 07:24:10;;;;;;;13.03;3.60;;;2.30;99.90;;;;;;4956778;28;20270;-84
2022/12/08 07:26:36;;;;;;;7.57;3.50;;;1.10;99.90;;;;;;4946999;28;20209;-82
2022/12/08 07:29:02;;;;;;;5.07;3.90;;;1.20;99.90;;;;;;4973901;28;20199;-82
2022/12/08 07:31:28;;;;;;;2.33;2.23;;;1.60;99.90;;;;;;4956837;28;20183;-83
2022/12/08 07:33:55;;;;;;;4.57;4.13;;;1.10;99.90;;;;;;4956600;28;20247;-83
2022/12/08 07:36:21;;;;;;;6.13;4.00;;;1.10;99.90;;;;;;4973260;28;20202;-82
2022/12/08 07:38:48;;;;;;;2.63;2.43;;;1.10;99.90;;;;;;4958684;28;20194;-83
2022/12/08 07:41:21;;;;;;;3.93;2.83;;;1.10;99.90;;;;;;4975102;28;20533;-82
2022/12/08 07:43:47;;;;;;;2.60;2.40;;;1.50;99.90;;;;;;4952210;28;20272;-83
2022/12/08 07:46:15;;;;;;;6.10;3.17;;;2.70;99.90;;;;;;4969936;28;20203;-82
2022/12/08 07:48:41;;;;;;;3.43;2.67;;;2.50;99.90;;;;;;4948942;28;20183;-82
2022/12/08 07:51:07;;;;;;;3.50;3.20;;;2.80;99.90;;;;;;4950437;28;20656;-82
2022/12/08 07:53:33;;;;;;;2.30;2.10;;;1.20;99.90;;;;;;4973143;28;20368;-82
2022/12/08 07:55:59;;;;;;;2.67;2.47;;;1.50;99.90;;;;;;4946751;28;20269;-80
2022/12/08 07:58:25;;;;;;;3.90;2.73;;;1.50;99.90;;;;;;4959144;28;20273;-82
2022/12/08 08:00:51;;;;;;;3.87;3.53;;;2.40;99.90;;;;;;4951818;28;20557;-82
2022/12/08 08:03:17;;;;;;;3.30;2.80;;;2.90;99.90;;;;;;4957802;28;20218;-83
2022/12/08 08:05:48;;;;;;;18.77;3.73;;;1.20;99.90;;;;;;4958235;28;20717;-81
2022/12/08 08:08:13;;;;;;;19.40;4.47;;;1.40;99.90;;;;;;4938022;29;20187;-81
2022/12/08 08:10:39;;;;;;;4.80;2.67;;;2.60;99.90;;;;;;4955490;29;20690;-82
2022/12/08 08:13:05;;;;;;;10.20;4.03;;;2.40;99.90;;;;;;4960322;28;20241;-82
2022/12/08 08:15:30;;;;;;;4.03;3.33;;;2.50;99.90;;;;;;4966137;28;20287;-82
2022/12/08 08:17:56;;;;;;;4.13;3.13;;;1.50;99.90;;;;;;4974570;28;20186;-82
2022/12/08 08:20:22;;;;;;;3.97;3.67;;;;;;;;;;4970930;28;20193;-82
2022/12/08 08:22:49;;;;;;;5.77;3.30;;;1.50;99.90;;;;;;4964304;28;20298;-82
2022/12/08 08:25:15;;;;;;;6.07;3.67;;;1.50;99.90;;;;;;4949407;28;20174;-83
2022/12/08 08:27:41;;;;;;;3.27;2.93;;;1.50;99.90;;;;;;4959964;28;20183;-83
2022/12/08 08:30:09;;;;;;;11.47;2.47;;;1.60;99.90;;;;;;4941444;29;20278;-82
2022/12/08 08:32:35;;;;;;;4.60;3.50;;;1.60;99.90;;;;;;4963869;28;20213;-82
2022/12/08 08:35:01;;;;;;;6.60;3.77;;;1.60;99.90;;;;;;4968558;28;20656;-82
2022/12/08 08:37:26;;;;;;;2.60;2.47;;;2.30;99.90;;;;;;4942581;29;20599;-82
2022/12/08 08:39:52;;;;;;;2.23;2.07;;;3.10;99.90;;;;;;4954321;28;20274;-83
2022/12/08 08:42:18;;;;;;;3.33;2.70;;;1.70;99.90;;;;;;4954425;29;20214;-83
2022/12/08 08:44:44;;;;;;;2.93;2.67;;;1.70;99.90;;;;;;4954645;29;20179;-82
2022/12/08 08:47:10;;;;;;;4.37;2.37;;;1.70;99.90;;;;;;4938820;29;20668;-83
2022/12/08 08:49:36;;;;;;;5.27;1.83;;;0.80;99.90;;;;;;4955613;29;20180;-82
2022/12/08 08:52:03;;;;;;;6.27;3.20;;;2.80;99.90;;;;;;4954929;29;20254;-82
2022/12/08 08:54:29;;;;;;;2.90;2.70;;;1.80;99.90;;;;;;4955948;29;20188;-82
2022/12/08 08:56:56;;;;;;;8.47;3.20;;;2.00;99.90;;;;;;4964007;28;20228;-82
2022/12/08 08:59:22;;;;;;;8.00;4.07;;;3.40;99.90;;;;;;4931090;28;20186;-82
2022/12/08 09:01:48;;;;;;;8.90;3.57;;;1.90;99.90;;;;;;4964151;28;20318;-82
2022/12/08 09:04:13;;;;;;;3.20;2.37;;;2.30;99.90;;;;;;4949711;28;20617;-82
2022/12/08 09:06:41;;;;;;;4.93;3.43;;;;;;;;;;4966180;28;20186;-81
2022/12/08 09:09:07;;;;;;;3.50;3.23;;;1.80;99.90;;;;;;4947162;28;20194;-83
2022/12/08 09:11:32;;;;;;;2.50;2.13;;;2.00;99.90;;;;;;4937238;28;20197;-83
2022/12/08 09:13:58;;;;;;;3.60;2.03;;;3.60;99.90;;;;;;4943697;28;20531;-83
2022/12/08 09:16:27;;;;;;;6.77;2.90;;;3.60;99.90;;;;;;4944671;28;20663;-83
2022/12/08 09:18:53;;;;;;;2.17;1.80;;;2.20;99.90;;;;;;4962302;28;20179;-84
2022/12/08 09:21:22;;;;;;;3.10;2.80;;;3.80;99.90;;;;;;4944151;28;20520;-83
2022/12/08 09:23:49;;;;;;;4.07;3.40;;;2.60;99.90;;;;;;4963612;28;20650;-83
2022/12/08 09:26:15;;;;;;;6.07;3.10;;;2.70;99.90;;;;;;4964617;28;20183;-83
2022/12/08 09:28:45;;;;;;;2.97;1.80;;;2.90;99.90;;;;;;4963664;28;20192;-82
2022/12/08 09:31:14;;;;;;;5.50;3.67;;;3.00;99.90;;;;;;4951446;28;20667;-84
2022/12/08 09:33:40;;;;;;;8.37;3.50;;;3.10;99.90;;;;;;4958275;28;20569;-82
2022/12/08 09:36:07;;;;;;;5.93;3.37;;;3.30;99.90;;;;;;4965149;28;20194;-82
2022/12/08 09:38:32;;;;;;;9.13;4.27;;;3.40;99.90;;;;;;4946653;28;20182;-82
2022/12/08 09:41:00;;;;;;;3.53;2.93;;;3.40;99.90;;;;;;4945420;28;20192;-82
2022/12/08 09:43:44;;;;;;;2.93;2.37;;;4.90;99.90;;;;;;4943382;28;20210;-83
2022/12/08 09:46:13;;;;;;;2.50;2.27;;;3.50;99.90;;;;;;4960007;28;20187;-82
2022/12/08 09:48:46;;;;;;;2.63;2.43;;;4.20;99.90;;;;;;4962944;28;20493;-81
2022/12/08 09:51:14;;;;;;;3.50;2.53;;;3.50;99.90;;;;;;4957869;28;20193;-82
2022/12/08 09:53:47;;;;;;;3.80;3.30;;;3.50;99.90;;;;;;4962866;28;20193;-82
2022/12/08 09:56:16;;;;;;;5.13;3.17;;;3.50;99.90;;;;;;4963396;28;20277;-82
2022/12/08 09:58:51;;;;;;;2.97;2.40;;;3.50;99.90;;;;;;4928209;29;20269;-82
2022/12/08 10:01:21;;;;;;;4.03;2.97;;;3.60;99.90;;;;;;4948114;28;20193;-82
2022/12/08 10:03:47;;;;;;;4.60;3.50;;;3.50;99.90;;;;;;4962993;28;20178;-81
2022/12/08 10:06:40;;;;;;;2.83;2.43;;;3.50;99.90;;;;;;4964119;28;20191;-82
2022/12/08 10:09:28;;;;;;;5.67;2.77;;;3.50;99.90;;;;;;4962481;28;20624;-82
2022/12/08 10:12:04;;;;;;;8.13;4.30;;;3.60;99.90;;;;;;4946247;28;20644;-82
2022/12/08 10:14:32;;;;;;;2.63;2.37;;;3.60;99.90;;;;;;4963904;28;20634;-81
2022/12/08 10:17:13;;;;;;;8.17;3.80;;;3.80;99.90;;;;;;4946320;28;20190;-81
2022/12/08 10:19:41;;;;;;;12.03;3.30;;;4.40;99.90;;;;;;4964348;28;20164;-81
2022/12/08 10:22:34;;;;;;;4.20;3.60;;;4.20;99.90;;;;;;4947009;28;20292;-82
2022/12/08 10:25:10;;;;;;;3.43;2.40;;;4.30;99.90;;;;;;4941960;28;20195;-82
2022/12/08 10:27:36;;;;;;;2.50;2.00;;;4.20;99.90;;;;;;4930227;28;20177;-83
2022/12/08 10:30:13;;;;;;;5.57;4.07;;;4.00;99.90;;;;;;4947378;28;20671;-82
2022/12/08 10:32:42;;;;;;;8.43;3.17;;;4.00;99.90;;;;;;4950341;28;20181;-82
2022/12/08 10:35:11;;;;;;;6.40;3.53;;;3.90;99.90;;;;;;4968224;28;20531;-82
2022/12/08 10:37:38;;;;;;;3.10;2.80;;;3.90;99.90;;;;;;4967688;28;20174;-81
2022/12/08 10:40:13;;;;;;;4.90;2.50;;;3.90;99.90;;;;;;4965263;28;20205;-82
2022/12/08 10:42:47;;;;;;;5.67;3.67;;;4.00;99.90;;;;;;4967919;28;20209;-82
2022/12/08 10:45:42;;;;;;;4.40;2.37;;;4.00;99.90;;;;;;4964711;28;20170;-82
2022/12/08 10:48:27;;;;;;;4.13;2.83;;;4.10;99.90;;;;;;4954827;28;20194;-81
2022/12/08 10:50:57;;;;;;;3.37;3.07;;;4.30;99.90;;;;;;4965041;28;20167;-82
2022/12/08 10:53:25;;;;;;;3.07;2.73;;;4.10;99.90;;;;;;4964328;28;20180;-83
2022/12/08 10:56:05;;;;;;;5.53;3.63;;;4.10;99.90;;;;;;4966950;28;20175;-82
2022/12/08 10:58:42;;;;;;;4.17;3.27;;;4.00;99.90;;;;;;4965934;28;20178;-84
2022/12/08 11:01:31;;;;;;;2.63;2.40;;;3.90;99.90;;;;;;4968397;28;20181;-82
2022/12/08 11:04:03;;;;;;;3.57;3.23;;;4.20;99.90;;;;;;4967237;28;20185;-82
2022/12/08 11:06:37;;;;;;;1.60;1.47;;;4.20;99.90;;;;;;4948324;28;20174;-82
2022/12/08 11:09:29;;;;;;;4.40;2.80;;;5.20;99.90;;;;;;4966694;28;20237;-82
2022/12/08 11:12:15;;;;;;;3.47;2.40;;;4.50;99.90;;;;;;4959435;28;20216;-82
2022/12/08 11:14:44;;;;;;;4.97;2.63;;;5.40;99.90;;;;;;4961798;28;20707;-82
2022/12/08 11:17:24;;;;;;;2.90;2.57;;;6.50;99.90;;;;;;4966647;28;20210;-83
2022/12/08 11:20:07;;;;;;;7.97;3.17;;;7.60;99.90;;;;;;4967824;28;20166;-83
2022/12/08 11:22:37;;;;;;;5.37;3.63;;;8.40;99.90;;;;;;4947430;28;20282;-82
2022/12/08 11:25:23;;;;;;;7.00;4.23;;;9.00;99.90;;;;;;4970128;28;20191;-82
2022/12/08 11:27:58;;;;;;;4.95;3.45;;;9.40;99.90;;;;;;4989243;28;20233;-84
2022/12/08 11:30:42;;;;;;;7.95;3.65;;;9.70;99.90;;;;;;4987951;28;20178;-86
2022/12/08 11:33:17;;;;;;;4.25;3.28;;;9.40;99.90;;;;;;4989085;28;20175;-82
2022/12/08 11:35:46;;;;;;;5.57;3.67;;;9.40;99.90;;;;;;4977729;28;20183;-83
2022/12/08 11:38:22;;;;;;;9.80;4.25;;;9.20;99.90;;;;;;4965972;28;20175;-81
2022/12/08 11:40:54;;;;;;;8.40;4.57;;;9.20;99.90;;;;;;4973162;28;20177;-82
2022/12/08 11:43:40;;;;;;;12.70;4.63;;;9.10;99.90;;;;;;4987793;28;20258;-82
2022/12/08 11:46:26;;;;;;;7.82;3.50;;;9.10;99.90;;;;;;4989155;28;20164;-81
2022/12/08 11:49:03;;;;;;;9.33;3.40;;;8.80;99.90;;;;;;4981436;28;20201;-81
2022/12/08 11:51:35;;;;;;;4.70;3.03;;;8.50;99.90;;;;;;4950332;28;20178;-81
2022/12/08 11:54:19;;;;;;;6.23;3.30;;;8.20;99.90;;;;;;4964634;28;20179;-81
2022/12/08 11:56:51;;;;;;;7.67;3.70;;;7.70;99.90;;;;;;4969968;28;20714;-81
2022/12/08 11:59:54;;;;;;;9.50;3.53;;;7.20;99.90;;;;;;4969161;28;20170;-82
2022/12/08 12:02:30;;;;;;;8.07;3.10;;;6.80;99.90;;;;;;4896626;29;20205;-82
2022/12/08 12:05:10;;;;;;;4.90;2.30;;;6.20;99.90;;;;;;4959996;28;20202;-83
2022/12/08 12:08:03;;;;;;;3.83;2.43;;;5.80;99.90;;;;;;4973344;28;20293;-81
2022/12/08 12:10:57;;;;;;;4.60;3.33;;;5.60;99.90;;;;;;4973539;28;20174;-82
2022/12/08 12:13:54;;;;;;;6.17;3.23;;;5.40;99.90;;;;;;4972894;28;20178;-82
2022/12/08 12:16:48;;;;;;;9.03;4.17;;;5.30;99.90;;;;;;4973157;28;20526;-81
2022/12/08 12:19:17;;;;;;;11.40;4.83;;;5.40;99.90;;;;;;4955543;28;20182;-82
2022/12/08 12:21:52;;;;;;;7.67;4.50;;;5.50;99.90;;;;;;4954958;28;20206;-81
2022/12/08 12:24:23;;;;;;;5.90;3.00;;;5.70;99.90;;;;;;4972177;28;20639;-81
2022/12/08 12:27:22;;;;;;;9.30;4.13;;;5.70;99.90;;;;;;4955841;28;20357;-81
2022/12/08 12:29:57;;;;;;;4.93;3.10;;;5.60;99.90;;;;;;4971635;28;20178;-81
2022/12/08 12:32:24;;;;;;;8.87;5.13;;;5.10;99.90;;;;;;4962589;28;20182;-81
2022/12/08 12:34:54;;;;;;;3.83;3.17;;;4.80;99.90;;;;;;4966218;28;20675;-81
2022/12/08 12:37:41;;;;;;;5.73;2.77;;;4.60;99.90;;;;;;4962834;28;20196;-81
2022/12/08 12:40:23;;;;;;;8.87;4.87;;;4.30;99.90;;;;;;4964479;28;20254;-81
2022/12/08 12:42:55;;;;;;;6.57;3.57;;;4.60;99.90;;;;;;4964367;28;20191;-81
2022/12/08 12:45:20;;;;;;;14.60;3.43;;;3.90;99.90;;;;;;4963569;28;20421;-81
2022/12/08 12:47:52;;;;;;;7.10;3.63;;;3.90;99.90;;;;;;4946232;28;20460;-81
2022/12/08 12:50:32;;;;;;;9.53;3.93;;;5.10;99.90;;;;;;4962861;28;20175;-81
2022/12/08 12:53:16;;;;;;;13.30;6.23;;;3.70;99.90;;;;;;4945264;28;20190;-82
2022/12/08 12:55:55;;;;;;;48.37;12.13;;;3.50;99.90;;;;;;4971340;28;20179;-82
2022/12/08 12:58:41;;;;;;;51.00;13.73;;;3.50;99.90;;;;;;4965837;28;20171;-81
2022/12/08 13:01:10;;;;;;;52.87;21.23;;;3.50;99.90;;;;;;4949550;28;20194;-81
2022/12/08 13:03:37;;;;;;;51.00;18.83;;;4.30;99.90;;;;;;4972516;28;20679;-81
2022/12/08 13:06:04;;;;;;;31.53;13.73;;;3.50;99.90;;;;;;4972412;28;20182;-82
2022/12/08 13:08:30;;;;;;;17.70;8.97;;;3.50;99.90;;;;;;4937514;28;20690;-81
2022/12/08 13:10:59;;;;;;;34.43;13.07;;;3.50;99.90;;;;;;4940566;28;20258;-82
2022/12/08 13:13:25;;;;;;;32.73;13.53;;;3.50;99.90;;;;;;4958846;28;20198;-82
2022/12/08 13:16:00;;;;;;;31.00;13.07;;;4.60;99.90;;;;;;4927543;28;20189;-82
2022/12/08 13:18:39;;;;;;;29.00;12.70;;;3.40;99.90;;;;;;4944056;28;20313;-82